createdAt,value
2017-12-05T00:01:43.871Z,102252.90
2017-12-05T00:04:11.453Z,102250.73
2017-12-05T00:06:39.076Z,102242.81
2017-12-05T00:09:06.611Z,102243.30
2017-12-05T00:11:34.169Z,102244.22
2017-12-05T00:14:01.677Z,102229.63
2017-12-05T00:16:29.191Z,102227.45
2017-12-05T00:18:56.773Z,102223.91
2017-12-05T00:21:24.333Z,102231.47
2017-12-05T00:23:51.882Z,102226.16
2017-12-05T00:26:19.451Z,102226.64
2017-12-05T00:28:46.985Z,102220.45
2017-12-05T00:31:14.511Z,102222.18
2017-12-05T00:33:42.031Z,102222.18
2017-12-05T00:36:09.542Z,102220.85
2017-12-05T00:38:37.074Z,102218.67
2017-12-05T00:41:04.711Z,102216.50
2017-12-05T00:43:32.251Z,102213.84
2017-12-05T00:45:59.767Z,102216.50
2017-12-05T00:48:27.304Z,102223.61
2017-12-05T00:50:54.932Z,102220.10
2017-12-05T00:53:22.451Z,102218.78
2017-12-05T00:55:49.964Z,102214.86
2017-12-05T00:58:17.477Z,102212.17
2017-12-05T01:00:44.988Z,102208.22
2017-12-05T01:03:12.510Z,102201.20
2017-12-05T01:05:40.106Z,102209.17
2017-12-05T01:08:07.622Z,102209.64
2017-12-05T01:10:35.148Z,102216.72
2017-12-05T01:13:02.674Z,102215.86
2017-12-05T01:15:30.218Z,102213.67
2017-12-05T01:17:57.730Z,102211.05
2017-12-05T01:20:25.250Z,102210.63
2017-12-05T01:22:52.766Z,102210.19
2017-12-05T01:25:20.291Z,102210.22
2017-12-05T01:27:47.805Z,102216.00
2017-12-05T01:30:15.385Z,102208.92
2017-12-05T01:32:42.898Z,102211.59
2017-12-05T01:35:10.450Z,102207.19
2017-12-05T01:37:37.977Z,102210.73
2017-12-05T01:40:05.494Z,102208.57
2017-12-05T01:42:33.020Z,102206.80
2017-12-05T01:45:00.549Z,102210.80
2017-12-05T01:47:28.084Z,102210.80
2017-12-05T01:49:55.603Z,102215.25
2017-12-05T01:52:23.145Z,102214.80
2017-12-05T01:54:50.667Z,102216.59
2017-12-05T01:57:18.183Z,102226.37
2017-12-05T01:59:45.814Z,102217.51
2017-12-05T02:02:13.371Z,102217.53
2017-12-05T02:04:40.890Z,102208.23
2017-12-05T02:07:08.491Z,102209.13
2017-12-05T02:09:36.019Z,102213.58
2017-12-05T02:12:03.537Z,102207.38
2017-12-05T02:14:31.054Z,102201.61
2017-12-05T02:16:58.571Z,102198.98
2017-12-05T02:19:26.185Z,102195.44
2017-12-05T02:21:53.717Z,102195.44
2017-12-05T02:24:21.300Z,102194.99
2017-12-05T02:26:48.789Z,102194.58
2017-12-05T02:29:16.323Z,102193.67
2017-12-05T02:31:43.882Z,102191.05
2017-12-05T02:34:11.406Z,102188.39
2017-12-05T02:36:38.917Z,102183.50
2017-12-05T02:39:06.460Z,102179.09
2017-12-05T02:41:33.975Z,102171.56
2017-12-05T02:44:01.581Z,102171.12
2017-12-05T02:46:29.133Z,102162.23
2017-12-05T02:48:56.693Z,102164.91
2017-12-05T02:51:24.207Z,102164.45
2017-12-05T02:53:51.709Z,102160.91
2017-12-05T02:56:19.213Z,102162.69
2017-12-05T02:58:46.732Z,102156.05
2017-12-05T03:01:14.238Z,102155.16
2017-12-05T03:03:41.752Z,102157.38
2017-12-05T03:06:09.310Z,102157.39
2017-12-05T03:08:36.831Z,102155.63
2017-12-05T03:11:04.359Z,102153.42
2017-12-05T03:13:31.878Z,102149.43
2017-12-05T03:15:59.388Z,102145.43
2017-12-05T03:18:26.893Z,102143.68
2017-12-05T03:20:54.468Z,102146.31
2017-12-05T03:23:22.016Z,102152.99
2017-12-05T03:25:49.588Z,102148.54
2017-12-05T03:28:17.096Z,102150.76
2017-12-05T03:30:44.643Z,102154.75
2017-12-05T03:33:12.159Z,102153.00
2017-12-05T03:35:39.666Z,102149.45
2017-12-05T03:38:07.181Z,102146.81
2017-12-05T03:40:34.700Z,102143.70
2017-12-05T03:43:02.217Z,102145.00
2017-12-05T03:45:29.737Z,102143.27
2017-12-05T03:47:57.322Z,102141.48
2017-12-05T03:50:24.843Z,102143.70
2017-12-05T03:52:52.383Z,102146.38
2017-12-05T03:55:19.888Z,102141.47
2017-12-05T03:57:47.398Z,102143.26
2017-12-05T04:00:14.925Z,102143.69
2017-12-05T04:02:42.470Z,102137.92
2017-12-05T04:05:09.974Z,102134.38
2017-12-05T04:07:37.495Z,102128.63
2017-12-05T04:10:05.055Z,102139.27
2017-12-05T04:12:32.562Z,102137.05
2017-12-05T04:15:00.072Z,102127.73
2017-12-05T04:17:27.588Z,102137.51
2017-12-05T04:19:55.130Z,102131.27
2017-12-05T04:22:22.639Z,102129.52
2017-12-05T04:24:50.146Z,102130.83
2017-12-05T04:27:17.812Z,102127.73
2017-12-05T04:29:45.296Z,102128.67
2017-12-05T04:32:12.801Z,102127.77
2017-12-05T04:34:40.304Z,102125.11
2017-12-05T04:37:07.812Z,102129.98
2017-12-05T04:39:35.335Z,102126.43
2017-12-05T04:42:02.925Z,102125.09
2017-12-05T04:44:30.443Z,102122.02
2017-12-05T04:46:57.969Z,102123.31
2017-12-05T04:49:25.597Z,102123.77
2017-12-05T04:51:53.111Z,102121.11
2017-12-05T04:54:20.624Z,102122.44
2017-12-05T04:56:48.170Z,102117.56
2017-12-05T04:59:15.738Z,102125.09
2017-12-05T05:01:43.261Z,102120.63
2017-12-05T05:04:10.872Z,102114.00
2017-12-05T05:06:38.388Z,102121.08
2017-12-05T05:09:05.899Z,102122.39
2017-12-05T05:11:33.424Z,102123.24
2017-12-05T05:14:00.956Z,102121.92
2017-12-05T05:16:28.479Z,102123.25
2017-12-05T05:18:55.995Z,102124.54
2017-12-05T05:21:23.503Z,102122.30
2017-12-05T05:23:51.031Z,102119.61
2017-12-05T05:26:18.562Z,102119.55
2017-12-05T05:28:46.088Z,102116.00
2017-12-05T05:31:13.606Z,102120.40
2017-12-05T05:33:41.151Z,102122.17
2017-12-05T05:36:08.721Z,102131.44
2017-12-05T05:38:36.251Z,102131.45
2017-12-05T05:41:03.772Z,102126.97
2017-12-05T05:43:31.281Z,102134.95
2017-12-05T05:45:58.797Z,102134.92
2017-12-05T05:48:26.334Z,102138.48
2017-12-05T05:50:53.845Z,102138.02
2017-12-05T05:53:21.358Z,102144.67
2017-12-05T05:55:48.882Z,102145.56
2017-12-05T05:58:16.454Z,102148.67
2017-12-05T06:00:44.017Z,102154.90
2017-12-05T06:03:11.549Z,102150.41
2017-12-05T06:05:39.051Z,102156.65
2017-12-05T06:08:06.570Z,102164.19
2017-12-05T06:10:34.089Z,102164.64
2017-12-05T06:13:01.609Z,102163.75
2017-12-05T06:15:29.145Z,102174.39
2017-12-05T06:17:56.674Z,102166.85
2017-12-05T06:20:24.200Z,102177.06
2017-12-05T06:22:51.753Z,102172.64
2017-12-05T06:25:19.314Z,102177.08
2017-12-05T06:27:46.838Z,102169.48
2017-12-05T06:30:14.354Z,102180.59
2017-12-05T06:32:41.870Z,102175.23
2017-12-05T06:35:09.393Z,102188.12
2017-12-05T06:37:36.988Z,102184.16
2017-12-05T06:40:04.583Z,102182.80
2017-12-05T06:42:32.093Z,102185.88
2017-12-05T06:44:59.608Z,102191.69
2017-12-05T06:47:27.111Z,102189.00
2017-12-05T06:49:54.631Z,102188.97
2017-12-05T06:52:22.130Z,102195.19
2017-12-05T06:54:49.645Z,102195.65
2017-12-05T06:57:17.185Z,102201.41
2017-12-05T06:59:44.751Z,102200.98
2017-12-05T07:02:12.300Z,102210.31
2017-12-05T07:04:39.875Z,102200.95
2017-12-05T07:07:07.380Z,102217.88
2017-12-05T07:09:34.896Z,102206.70
2017-12-05T07:12:02.448Z,102199.57
2017-12-05T07:14:30.014Z,102200.03
2017-12-05T07:16:57.563Z,102205.38
2017-12-05T07:19:25.113Z,102211.16
2017-12-05T07:21:52.689Z,102213.84
2017-12-05T07:24:20.195Z,102213.83
2017-12-05T07:26:47.706Z,102221.80
2017-12-05T07:29:15.222Z,102209.77
2017-12-05T07:31:42.753Z,102219.57
2017-12-05T07:34:10.359Z,102223.13
2017-12-05T07:36:37.878Z,102225.35
2017-12-05T07:39:05.392Z,102223.59
2017-12-05T07:41:32.914Z,102239.14
2017-12-05T07:44:00.429Z,102234.27
2017-12-05T07:46:27.934Z,102239.61
2017-12-05T07:48:55.439Z,102239.56
2017-12-05T07:51:22.990Z,102239.09
2017-12-05T07:53:50.521Z,102232.89
2017-12-05T07:56:18.035Z,102242.70
2017-12-05T07:58:45.564Z,102248.91
2017-12-05T08:01:13.068Z,102243.95
2017-12-05T08:03:40.751Z,102244.88
2017-12-05T08:06:08.258Z,102250.70
2017-12-05T08:08:35.769Z,102253.77
2017-12-05T08:11:03.295Z,102253.33
2017-12-05T08:13:30.805Z,102251.09
2017-12-05T08:15:58.309Z,102251.11
2017-12-05T08:18:25.814Z,102250.69
2017-12-05T08:20:53.335Z,102254.63
2017-12-05T08:23:20.859Z,102251.53
2017-12-05T08:25:48.360Z,102251.09
2017-12-05T08:28:15.881Z,102259.10
2017-12-05T08:30:43.400Z,102267.08
2017-12-05T08:33:10.910Z,102269.28
2017-12-05T08:35:38.449Z,102266.20
2017-12-05T08:38:05.956Z,102273.29
2017-12-05T08:40:33.470Z,102275.96
2017-12-05T08:43:00.985Z,102276.45
2017-12-05T08:45:28.495Z,102268.39
2017-12-05T08:47:55.996Z,102271.97
2017-12-05T08:50:23.519Z,102278.22
2017-12-05T08:52:51.028Z,102278.64
2017-12-05T08:55:18.595Z,102280.86
2017-12-05T08:57:46.206Z,102277.32
2017-12-05T09:00:13.762Z,102278.58
2017-12-05T09:02:41.291Z,102277.68
2017-12-05T09:05:08.800Z,102282.11
2017-12-05T09:07:36.308Z,102278.95
2017-12-05T09:10:03.855Z,102284.75
2017-12-05T09:12:31.375Z,102286.91
2017-12-05T09:14:58.917Z,102278.02
2017-12-05T09:17:26.429Z,102287.33
2017-12-05T09:19:53.964Z,102285.58
2017-12-05T09:22:21.515Z,102286.92
2017-12-05T09:24:49.025Z,102275.33
2017-12-05T09:27:16.865Z,102281.13
2017-12-05T09:29:46.144Z,102283.84
2017-12-05T09:32:15.612Z,102279.38
2017-12-05T09:34:45.987Z,102286.06
2017-12-05T09:37:15.745Z,102289.62
2017-12-05T09:39:43.257Z,102280.30
2017-12-05T09:42:10.785Z,102287.44
2017-12-05T09:44:38.313Z,102274.94
2017-12-05T09:47:05.903Z,102274.04
2017-12-05T09:49:33.462Z,102282.06
2017-12-05T09:52:00.975Z,102283.78
2017-12-05T09:54:28.484Z,102285.13
2017-12-05T09:56:56.782Z,102270.44
2017-12-05T09:59:24.285Z,102275.81
2017-12-05T10:01:51.815Z,102270.45
2017-12-05T10:04:19.319Z,102262.92
2017-12-05T10:06:46.825Z,102266.87
2017-12-05T10:09:14.352Z,102263.30
2017-12-05T10:11:41.878Z,102260.54
2017-12-05T10:14:09.464Z,102261.43
2017-12-05T10:16:36.974Z,102256.96
2017-12-05T10:19:04.581Z,102262.37
2017-12-05T10:21:32.137Z,102250.29
2017-12-05T10:23:59.641Z,102256.48
2017-12-05T10:26:27.158Z,102254.31
2017-12-05T10:28:54.670Z,102249.38
2017-12-05T10:31:22.325Z,102252.09
2017-12-05T10:33:49.946Z,102247.20
2017-12-05T10:36:17.454Z,102254.37
2017-12-05T10:38:44.954Z,102265.48
2017-12-05T10:41:12.453Z,102258.38
2017-12-05T10:43:39.962Z,102262.80
2017-12-05T10:46:07.472Z,102256.66
2017-12-05T10:48:34.977Z,102273.56
2017-12-05T10:51:02.485Z,102265.08
2017-12-05T10:53:30.077Z,102261.11
2017-12-05T10:55:57.594Z,102262.86
2017-12-05T10:58:25.106Z,102267.40
2017-12-05T11:00:52.624Z,102262.46
2017-12-05T11:03:20.127Z,102258.52
2017-12-05T11:05:47.641Z,102265.08
2017-12-05T11:08:15.144Z,102262.43
2017-12-05T11:10:42.668Z,102251.20
2017-12-05T11:13:10.284Z,102254.52
2017-12-05T11:15:37.840Z,102256.66
2017-12-05T11:18:05.349Z,102257.02
2017-12-05T11:20:32.861Z,102257.78
2017-12-05T11:23:00.378Z,102253.18
2017-12-05T11:25:27.921Z,102252.05
2017-12-05T11:27:55.422Z,102254.83
2017-12-05T11:30:22.930Z,102260.30
2017-12-05T11:32:50.438Z,102253.76
2017-12-05T11:35:17.955Z,102253.73
2017-12-05T11:37:45.457Z,102258.30
2017-12-05T11:40:12.971Z,102264.91
2017-12-05T11:42:40.474Z,102269.80
2017-12-05T11:45:07.986Z,102254.66
2017-12-05T11:47:35.626Z,102250.58
2017-12-05T11:50:03.174Z,102249.67
2017-12-05T11:52:30.686Z,102244.15
2017-12-05T11:54:58.206Z,102250.34
2017-12-05T11:57:25.717Z,102252.69
2017-12-05T11:59:53.784Z,102243.72
2017-12-05T12:02:21.300Z,102252.75
2017-12-05T12:04:48.804Z,102243.02
2017-12-05T12:07:16.322Z,102241.72
2017-12-05T12:09:43.866Z,102248.95
2017-12-05T12:12:11.416Z,102252.08
2017-12-05T12:14:38.926Z,102243.14
2017-12-05T12:17:06.433Z,102247.66
2017-12-05T12:19:33.958Z,102252.14
2017-12-05T12:22:01.497Z,102250.36
2017-12-05T12:24:29.110Z,102252.58
2017-12-05T12:26:56.616Z,102250.80
2017-12-05T12:29:24.171Z,102248.20
2017-12-05T12:31:51.750Z,102252.69
2017-12-05T12:34:19.298Z,102258.02
2017-12-05T12:36:46.814Z,102266.14
2017-12-05T12:39:14.323Z,102254.56
2017-12-05T12:41:41.952Z,102256.80
2017-12-05T12:44:09.461Z,102246.58
2017-12-05T12:46:36.970Z,102250.10
2017-12-05T12:49:04.539Z,102252.84
2017-12-05T12:51:32.192Z,102259.05
2017-12-05T12:53:59.766Z,102260.44
2017-12-05T12:56:27.318Z,102256.91
2017-12-05T12:58:54.962Z,102261.27
2017-12-05T13:01:22.512Z,102256.41
2017-12-05T13:03:50.023Z,102255.05
2017-12-05T13:06:17.541Z,102258.15
2017-12-05T13:08:45.058Z,102246.09
2017-12-05T13:11:12.586Z,102244.35
2017-12-05T13:13:40.091Z,102244.80
2017-12-05T13:16:07.713Z,102239.00
2017-12-05T13:18:35.227Z,102236.73
2017-12-05T13:21:02.728Z,102235.40
2017-12-05T13:23:30.239Z,102234.10
2017-12-05T13:25:57.750Z,102228.31
2017-12-05T13:28:25.292Z,102230.98
2017-12-05T13:30:52.809Z,102232.83
2017-12-05T13:33:20.834Z,102224.73
2017-12-05T13:35:48.654Z,102230.95
2017-12-05T13:38:17.197Z,102226.97
2017-12-05T13:40:44.820Z,102231.00
2017-12-05T13:43:13.443Z,102230.17
2017-12-05T13:45:40.960Z,102234.20
2017-12-05T13:48:08.546Z,102240.83
2017-12-05T13:50:37.183Z,102243.52
2017-12-05T13:53:05.955Z,102242.24
2017-12-05T13:55:33.550Z,102246.69
2017-12-05T13:58:13.423Z,102251.18
2017-12-05T14:01:10.103Z,102243.63
2017-12-05T14:03:38.501Z,102235.16
2017-12-05T14:06:06.731Z,102232.52
2017-12-05T14:08:34.245Z,102230.73
2017-12-05T14:11:02.503Z,102233.36
2017-12-05T14:13:32.233Z,102225.41
2017-12-05T14:15:59.780Z,102228.94
2017-12-05T14:18:27.319Z,102224.03
2017-12-05T14:20:54.853Z,102227.56
2017-12-05T14:23:22.388Z,102233.81
2017-12-05T14:25:49.910Z,102233.38
2017-12-05T14:28:17.450Z,102232.52
2017-12-05T14:30:46.708Z,102232.93
2017-12-05T14:33:14.224Z,102240.93
2017-12-05T14:35:41.739Z,102231.64
2017-12-05T14:38:09.345Z,102239.64
2017-12-05T14:40:38.553Z,102232.52
2017-12-05T14:43:06.095Z,102224.94
2017-12-05T14:45:33.613Z,102230.78
2017-12-05T14:48:03.024Z,102229.47
2017-12-05T14:50:31.531Z,102225.48
2017-12-05T14:53:01.946Z,102237.47
2017-12-05T14:55:29.471Z,102228.14
2017-12-05T14:57:56.992Z,102230.77
2017-12-05T15:00:25.790Z,102231.25
2017-12-05T15:02:54.281Z,102227.67
2017-12-05T15:05:21.816Z,102233.48
2017-12-05T15:07:49.352Z,102227.70
2017-12-05T15:10:16.868Z,102211.66
2017-12-05T15:12:45.394Z,102213.47
2017-12-05T15:15:12.922Z,102215.69
2017-12-05T15:17:40.441Z,102218.83
2017-12-05T15:20:07.972Z,102221.94
2017-12-05T15:22:35.489Z,102218.83
2017-12-05T15:25:03.720Z,102221.97
2017-12-05T15:27:31.240Z,102211.27
2017-12-05T15:29:58.758Z,102218.38
2017-12-05T15:32:26.303Z,102223.29
2017-12-05T15:34:53.822Z,102231.28
2017-12-05T15:37:21.356Z,102228.59
2017-12-05T15:39:51.048Z,102221.91
2017-12-05T15:42:18.574Z,102219.72
2017-12-05T15:44:49.929Z,102217.05
2017-12-05T15:47:17.514Z,102229.02
2017-12-05T15:49:45.096Z,102228.14
2017-12-05T15:52:16.739Z,102231.23
2017-12-05T15:54:48.635Z,102233.47
2017-12-05T15:57:19.662Z,102231.70
2017-12-05T15:59:48.207Z,102223.66
2017-12-05T16:02:29.878Z,102232.58
2017-12-05T16:04:57.465Z,102230.34
2017-12-05T16:07:25.007Z,102234.33
2017-12-05T16:09:53.485Z,102233.45
2017-12-05T16:12:21.035Z,102236.53
2017-12-05T16:14:51.993Z,102230.77
2017-12-05T16:17:19.509Z,102236.13
2017-12-05T16:19:47.057Z,102220.09
2017-12-05T16:22:16.310Z,102228.56
2017-12-05T16:24:43.936Z,102219.23
2017-12-05T16:27:11.516Z,102225.00
2017-12-05T16:29:39.029Z,102226.32
2017-12-05T16:32:06.560Z,102226.78
2017-12-05T16:34:34.198Z,102228.14
2017-12-05T16:37:02.302Z,102217.02
2017-12-05T16:39:30.623Z,102218.33
2017-12-05T16:41:59.244Z,102224.11
2017-12-05T16:44:26.862Z,102225.91
2017-12-05T16:46:54.394Z,102223.64
2017-12-05T16:49:21.951Z,102223.20
2017-12-05T16:51:49.498Z,102228.11
2017-12-05T16:54:17.096Z,102230.77
2017-12-05T16:56:44.621Z,102223.64
2017-12-05T16:59:12.155Z,102225.41
2017-12-05T17:01:43.363Z,102229.87
2017-12-05T17:04:10.899Z,102234.32
2017-12-05T17:06:39.133Z,102228.53
2017-12-05T17:09:08.780Z,102220.50
2017-12-05T17:11:36.574Z,102219.64
2017-12-05T17:14:04.069Z,102220.95
2017-12-05T17:16:31.591Z,102212.97
2017-12-05T17:18:59.402Z,102217.38
2017-12-05T17:21:26.945Z,102214.27
2017-12-05T17:23:55.367Z,102228.06
2017-12-05T17:26:23.833Z,102233.00
2017-12-05T17:28:51.382Z,102222.73
2017-12-05T17:31:19.657Z,102225.41
2017-12-05T17:33:47.199Z,102226.73
2017-12-05T17:36:14.717Z,102227.17
2017-12-05T17:38:42.250Z,102227.14
2017-12-05T17:41:09.792Z,102224.49
2017-12-05T17:43:37.317Z,102221.82
2017-12-05T17:46:04.870Z,102223.62
2017-12-05T17:48:32.384Z,102231.16
2017-12-05T17:50:59.906Z,102224.91
2017-12-05T17:53:27.423Z,102221.38
2017-12-05T17:55:55.849Z,102224.48
2017-12-05T17:58:23.382Z,102213.34
2017-12-05T18:00:50.918Z,102211.58
2017-12-05T18:03:18.432Z,102225.83
2017-12-05T18:05:45.962Z,102224.02
2017-12-05T18:08:13.492Z,102227.60
2017-12-05T18:10:41.018Z,102223.62
2017-12-05T18:13:09.103Z,102222.73
2017-12-05T18:15:36.634Z,102216.92
2017-12-05T18:18:04.496Z,102215.15
2017-12-05T18:20:32.024Z,102206.69
2017-12-05T18:23:00.256Z,102202.23
2017-12-05T18:25:27.777Z,102220.48
2017-12-05T18:27:55.291Z,102216.52
2017-12-05T18:30:22.809Z,102203.15
2017-12-05T18:32:51.000Z,102216.50
2017-12-05T18:35:18.512Z,102211.61
2017-12-05T18:37:46.042Z,102218.73
2017-12-05T18:40:13.578Z,102209.86
2017-12-05T18:42:42.061Z,102217.41
2017-12-05T18:45:09.595Z,102206.70
2017-12-05T18:47:37.846Z,102216.95
2017-12-05T18:50:05.371Z,102220.05
2017-12-05T18:52:34.042Z,102212.08
2017-12-05T18:55:01.578Z,102215.17
2017-12-05T18:57:29.098Z,102211.18
2017-12-05T18:59:56.612Z,102214.28
2017-12-05T19:02:24.894Z,102216.52
2017-12-05T19:04:52.426Z,102215.20
2017-12-05T19:07:21.131Z,102216.95
2017-12-05T19:09:48.669Z,102209.40
2017-12-05T19:12:16.837Z,102212.52
2017-12-05T19:14:44.364Z,102215.22
2017-12-05T19:17:13.358Z,102202.27
2017-12-05T19:19:40.882Z,102209.86
2017-12-05T19:22:08.406Z,102213.41
2017-12-05T19:24:35.933Z,102216.98
2017-12-05T19:27:03.471Z,102218.76
2017-12-05T19:29:30.992Z,102210.77
2017-12-05T19:31:58.509Z,102211.61
2017-12-05T19:34:26.052Z,102213.84
2017-12-05T19:36:53.603Z,102213.38
2017-12-05T19:39:21.731Z,102216.50
2017-12-05T19:41:49.273Z,102211.14
2017-12-05T19:44:16.808Z,102217.39
2017-12-05T19:46:45.818Z,102216.08
2017-12-05T19:49:13.348Z,102203.16
2017-12-05T19:51:40.873Z,102207.58
2017-12-05T19:54:08.765Z,102212.48
2017-12-05T19:56:36.521Z,102199.16
2017-12-05T19:59:04.052Z,102210.73
2017-12-05T20:01:31.589Z,102204.95
2017-12-05T20:03:59.124Z,102204.92
2017-12-05T20:06:28.507Z,102195.58
2017-12-05T20:08:56.745Z,102212.95
2017-12-05T20:11:25.412Z,102198.72
2017-12-05T20:13:52.941Z,102203.61
2017-12-05T20:16:21.527Z,102208.95
2017-12-05T20:18:49.089Z,102194.71
2017-12-05T20:21:17.448Z,102200.06
2017-12-05T20:23:44.947Z,102197.41
2017-12-05T20:26:12.709Z,102194.27
2017-12-05T20:28:41.707Z,102190.70
2017-12-05T20:31:11.720Z,102193.39
2017-12-05T20:33:39.259Z,102196.50
2017-12-05T20:36:07.386Z,102200.06
2017-12-05T20:38:34.918Z,102200.93
2017-12-05T20:41:02.465Z,102201.84
2017-12-05T20:43:30.227Z,102197.81
2017-12-05T20:45:58.091Z,102194.70
2017-12-05T20:48:25.628Z,102191.62
2017-12-05T20:50:53.153Z,102191.59
2017-12-05T20:53:20.681Z,102202.12
2017-12-05T20:55:48.203Z,102183.47
2017-12-05T20:58:15.748Z,102190.16
2017-12-05T21:00:43.295Z,102195.95
2017-12-05T21:03:10.825Z,102191.53
2017-12-05T21:05:39.118Z,102184.84
2017-12-05T21:08:06.671Z,102189.28
2017-12-05T21:10:34.906Z,102183.95
2017-12-05T21:13:02.438Z,102184.44
2017-12-05T21:15:29.962Z,102192.45
2017-12-05T21:17:57.535Z,102186.23
2017-12-05T21:20:25.072Z,102192.00
2017-12-05T21:22:56.086Z,102189.77
2017-12-05T21:25:23.626Z,102195.53
2017-12-05T21:27:51.159Z,102197.81
2017-12-05T21:30:18.692Z,102190.70
2017-12-05T21:32:50.332Z,102192.91
2017-12-05T21:35:17.857Z,102203.56
2017-12-05T21:37:45.393Z,102195.59
2017-12-05T21:40:13.206Z,102189.37
2017-12-05T21:42:40.733Z,102203.59
2017-12-05T21:45:08.255Z,102196.00
2017-12-05T21:47:35.769Z,102199.57
2017-12-05T21:50:03.278Z,102197.81
2017-12-05T21:52:31.636Z,102191.12
2017-12-05T21:54:59.156Z,102202.22
2017-12-05T21:57:26.681Z,102196.45
2017-12-05T21:59:54.200Z,102203.59
2017-12-05T22:02:21.725Z,102199.11
2017-12-05T22:04:49.249Z,102206.69
2017-12-05T22:07:16.776Z,102194.66
2017-12-05T22:09:45.121Z,102197.77
2017-12-05T22:12:12.637Z,102192.00
2017-12-05T22:14:40.205Z,102192.90
2017-12-05T22:17:07.960Z,102192.87
2017-12-05T22:19:36.182Z,102186.66
2017-12-05T22:22:03.704Z,102192.92
2017-12-05T22:24:31.869Z,102195.12
2017-12-05T22:27:00.271Z,102191.56
2017-12-05T22:29:27.788Z,102194.25
2017-12-05T22:31:55.318Z,102190.70
2017-12-05T22:34:22.844Z,102195.59
2017-12-05T22:36:50.369Z,102191.99
2017-12-05T22:39:17.883Z,102199.16
2017-12-05T22:41:45.532Z,102200.92
2017-12-05T22:44:13.048Z,102212.50
2017-12-05T22:46:40.570Z,102203.61
2017-12-05T22:49:08.101Z,102205.38
2017-12-05T22:51:35.623Z,102210.25
2017-12-05T22:54:03.150Z,102217.41
2017-12-05T22:56:30.676Z,102216.53
2017-12-05T22:58:58.208Z,102214.77
2017-12-05T23:01:26.142Z,102215.67
2017-12-05T23:03:53.670Z,102213.44
2017-12-05T23:06:21.194Z,102213.44
2017-12-05T23:08:48.723Z,102208.55
2017-12-05T23:11:16.239Z,102198.31
2017-12-05T23:13:43.763Z,102203.23
2017-12-05T23:16:11.292Z,102200.14
2017-12-05T23:18:38.822Z,102207.23
2017-12-05T23:21:08.185Z,102205.92
2017-12-05T23:23:35.753Z,102194.80
2017-12-05T23:26:04.091Z,102210.78
2017-12-05T23:28:32.526Z,102201.48
2017-12-05T23:31:00.916Z,102200.14
2017-12-05T23:33:28.426Z,102194.36
2017-12-05T23:35:56.112Z,102192.12
2017-12-05T23:38:23.973Z,102190.80
2017-12-05T23:40:52.416Z,102193.00
2017-12-05T23:43:19.944Z,102190.81
2017-12-05T23:45:47.474Z,102180.98
2017-12-05T23:48:15.648Z,102182.37
2017-12-05T23:50:43.883Z,102181.88
2017-12-05T23:53:11.392Z,102177.88
2017-12-05T23:55:39.212Z,102177.42
2017-12-05T23:58:07.625Z,102173.00
